createdAt,value
2023-11-30T00:02:09.931Z,96.18
2023-11-30T00:04:31.807Z,96.10
2023-11-30T00:06:53.692Z,96.07
2023-11-30T00:09:15.607Z,96.56
2023-11-30T00:11:37.513Z,96.19
2023-11-30T00:13:59.399Z,96.09
2023-11-30T00:16:21.290Z,96.39
2023-11-30T00:18:43.252Z,96.35
2023-11-30T00:21:06.154Z,96.96
2023-11-30T00:23:28.256Z,96.93
2023-11-30T00:25:50.118Z,97.22
2023-11-30T00:28:11.961Z,97.38
2023-11-30T00:30:34.027Z,97.69
2023-11-30T00:32:56.398Z,97.66
2023-11-30T00:35:18.333Z,97.32
2023-11-30T00:37:40.197Z,97.75
2023-11-30T00:40:02.132Z,97.60
2023-11-30T00:42:24.941Z,98.05
2023-11-30T00:44:46.839Z,97.91
2023-11-30T00:47:09.035Z,97.49
2023-11-30T00:49:30.902Z,97.23
2023-11-30T00:51:52.843Z,96.71
2023-11-30T00:54:14.782Z,97.01
2023-11-30T00:56:36.705Z,97.08
2023-11-30T00:58:58.657Z,96.51
2023-11-30T01:01:21.472Z,96.88
2023-11-30T01:03:43.662Z,96.61
2023-11-30T01:06:05.970Z,97.11
2023-11-30T01:08:27.959Z,97.06
2023-11-30T01:10:49.860Z,97.19
2023-11-30T01:13:11.800Z,97.20
2023-11-30T01:15:33.668Z,96.45
2023-11-30T01:17:55.619Z,97.05
2023-11-30T01:20:18.362Z,96.93
2023-11-30T01:22:40.558Z,97.12
2023-11-30T01:25:02.447Z,97.09
2023-11-30T01:27:24.353Z,96.88
2023-11-30T01:29:46.567Z,96.34
2023-11-30T01:32:08.581Z,96.60
2023-11-30T01:34:30.533Z,96.35
2023-11-30T01:36:52.565Z,96.70
2023-11-30T01:39:16.659Z,96.70
2023-11-30T01:41:38.610Z,96.38
2023-11-30T01:44:00.508Z,96.04
2023-11-30T01:46:22.785Z,95.76
2023-11-30T01:48:45.528Z,95.36
2023-11-30T01:51:09.900Z,95.25
2023-11-30T01:53:32.065Z,94.41
2023-11-30T01:55:54.447Z,94.59
2023-11-30T01:58:16.315Z,94.39
2023-11-30T02:00:38.767Z,94.45
2023-11-30T02:03:02.422Z,94.78
2023-11-30T02:05:24.322Z,95.03
2023-11-30T02:07:46.217Z,95.29
2023-11-30T02:10:08.599Z,95.16
2023-11-30T02:12:30.658Z,93.97
2023-11-30T02:14:52.602Z,93.17
2023-11-30T02:17:14.805Z,93.65
2023-11-30T02:19:36.737Z,94.13
2023-11-30T02:21:58.679Z,94.72
2023-11-30T02:24:20.674Z,95.34
2023-11-30T02:26:42.729Z,95.99
2023-11-30T02:29:04.715Z,96.41
2023-11-30T02:31:26.679Z,96.46
2023-11-30T02:33:48.633Z,96.82
2023-11-30T02:36:11.035Z,97.68
2023-11-30T02:38:32.943Z,97.63
2023-11-30T02:40:54.940Z,97.90
2023-11-30T02:43:16.873Z,97.92
2023-11-30T02:45:38.776Z,98.26
2023-11-30T02:48:00.827Z,98.48
2023-11-30T02:50:22.815Z,98.45
2023-11-30T02:52:44.721Z,98.38
2023-11-30T02:55:07.374Z,98.39
2023-11-30T02:57:29.450Z,98.38
2023-11-30T02:59:51.357Z,98.67
2023-11-30T03:02:15.354Z,97.98
2023-11-30T03:04:37.433Z,98.13
2023-11-30T03:06:59.300Z,97.62
2023-11-30T03:09:21.360Z,96.34
2023-11-30T03:11:43.498Z,96.33
2023-11-30T03:14:05.426Z,95.68
2023-11-30T03:16:28.897Z,94.63
2023-11-30T03:18:59.214Z,94.72
2023-11-30T03:21:28.644Z,94.15
2023-11-30T03:23:52.719Z,94.34
2023-11-30T03:26:18.233Z,94.12
2023-11-30T03:28:40.106Z,93.91
2023-11-30T03:31:04.882Z,93.79
2023-11-30T03:33:26.772Z,93.46
2023-11-30T03:35:51.743Z,93.93
2023-11-30T03:38:13.655Z,93.89
2023-11-30T03:40:35.531Z,93.71
2023-11-30T03:42:57.453Z,93.55
2023-11-30T03:45:19.338Z,93.17
2023-11-30T03:47:41.264Z,93.06
2023-11-30T03:50:03.416Z,92.43
2023-11-30T03:52:25.279Z,92.36
2023-11-30T03:54:47.285Z,92.27
2023-11-30T03:57:09.218Z,92.30
2023-11-30T03:59:32.406Z,92.50
2023-11-30T04:01:55.925Z,92.36
2023-11-30T04:04:17.880Z,92.32
2023-11-30T04:06:39.899Z,92.18
2023-11-30T04:09:01.961Z,91.98
2023-11-30T04:11:23.840Z,91.50
2023-11-30T04:13:46.906Z,91.86
2023-11-30T04:16:09.408Z,91.52
2023-11-30T04:18:31.379Z,91.32
2023-11-30T04:20:53.400Z,91.21
2023-11-30T04:23:15.419Z,91.41
2023-11-30T04:25:37.329Z,91.11
2023-11-30T04:27:59.260Z,91.04
2023-11-30T04:30:21.250Z,90.98
2023-11-30T04:32:43.329Z,90.97
2023-11-30T04:35:06.541Z,91.14
2023-11-30T04:37:28.407Z,90.77
2023-11-30T04:39:50.262Z,91.03
2023-11-30T04:42:13.728Z,91.14
2023-11-30T04:44:40.615Z,90.56
2023-11-30T04:47:02.517Z,91.04
2023-11-30T04:49:24.379Z,90.90
2023-11-30T04:51:46.471Z,90.80
2023-11-30T04:54:10.588Z,91.00
2023-11-30T04:56:32.463Z,91.06
2023-11-30T04:58:54.648Z,90.72
2023-11-30T05:01:16.613Z,91.01
2023-11-30T05:03:39.496Z,90.97
2023-11-30T05:06:04.580Z,91.04
2023-11-30T05:08:28.790Z,90.95
2023-11-30T05:10:50.678Z,90.71
2023-11-30T05:13:12.632Z,91.20
2023-11-30T05:15:39.155Z,90.93
2023-11-30T05:18:01.153Z,90.81
2023-11-30T05:20:23.175Z,90.15
2023-11-30T05:22:44.993Z,90.23
2023-11-30T05:25:08.881Z,90.50
2023-11-30T05:27:30.764Z,90.58
2023-11-30T05:29:52.716Z,90.69
2023-11-30T05:32:14.658Z,90.91
2023-11-30T05:34:39.279Z,91.06
2023-11-30T05:37:01.130Z,90.87
2023-11-30T05:39:23.054Z,90.98
2023-11-30T05:41:44.975Z,91.37
2023-11-30T05:44:07.152Z,91.61
2023-11-30T05:46:29.066Z,91.33
2023-11-30T05:48:50.973Z,91.39
2023-11-30T05:51:14.721Z,91.57
2023-11-30T05:53:37.080Z,91.39
2023-11-30T05:55:59.727Z,91.60
2023-11-30T05:58:21.585Z,92.01
2023-11-30T06:00:44.182Z,91.95
2023-11-30T06:03:08.870Z,92.33
2023-11-30T06:05:31.001Z,91.88
2023-11-30T06:07:52.892Z,92.84
2023-11-30T06:10:16.111Z,92.69
2023-11-30T06:12:39.874Z,92.95
2023-11-30T06:15:01.805Z,93.10
2023-11-30T06:17:23.756Z,93.90
2023-11-30T06:19:46.326Z,93.68
2023-11-30T06:22:08.184Z,94.19
2023-11-30T06:24:31.085Z,94.30
2023-11-30T06:26:53.221Z,94.23
2023-11-30T06:29:16.976Z,94.31
2023-11-30T06:31:38.932Z,94.15
2023-11-30T06:34:00.794Z,94.04
2023-11-30T06:36:22.681Z,93.97
2023-11-30T06:38:45.008Z,94.08
2023-11-30T06:41:13.893Z,94.08
2023-11-30T06:43:35.898Z,94.81
2023-11-30T06:45:58.014Z,94.83
2023-11-30T06:48:20.204Z,94.29
2023-11-30T06:50:42.206Z,94.50
2023-11-30T06:53:04.101Z,94.57
2023-11-30T06:55:25.958Z,94.43
2023-11-30T06:57:48.120Z,94.47
2023-11-30T07:00:11.849Z,94.46
2023-11-30T07:02:33.893Z,94.26
2023-11-30T07:04:55.908Z,93.95
2023-11-30T07:07:27.882Z,94.17
2023-11-30T07:09:55.845Z,93.97
2023-11-30T07:12:17.798Z,93.53
2023-11-30T07:14:50.631Z,93.57
2023-11-30T07:17:13.627Z,93.48
2023-11-30T07:19:39.390Z,93.80
2023-11-30T07:22:01.309Z,93.61
2023-11-30T07:24:23.219Z,92.99
2023-11-30T07:26:49.517Z,92.80
2023-11-30T07:29:11.440Z,92.77
2023-11-30T07:31:33.494Z,92.73
2023-11-30T07:33:55.532Z,92.59
2023-11-30T07:36:17.541Z,91.66
2023-11-30T07:38:39.419Z,91.24
2023-11-30T07:41:02.026Z,91.45
2023-11-30T07:43:23.878Z,91.34
2023-11-30T07:45:45.779Z,90.74
2023-11-30T07:48:07.754Z,90.38
2023-11-30T07:50:29.983Z,89.74
2023-11-30T07:52:53.436Z,89.11
2023-11-30T07:55:15.497Z,89.25
2023-11-30T07:57:37.519Z,89.56
2023-11-30T07:59:59.422Z,90.02
2023-11-30T08:02:21.407Z,90.44
2023-11-30T08:04:43.480Z,90.53
2023-11-30T08:07:05.418Z,89.97
2023-11-30T08:09:28.395Z,90.06
2023-11-30T08:11:51.056Z,90.14
2023-11-30T08:14:13.238Z,89.87
2023-11-30T08:16:35.586Z,88.73
2023-11-30T08:18:58.079Z,87.70
2023-11-30T08:21:22.677Z,86.52
2023-11-30T08:23:45.008Z,86.32
2023-11-30T08:26:07.242Z,86.29
2023-11-30T08:28:29.114Z,85.96
2023-11-30T08:30:52.245Z,84.96
2023-11-30T08:33:14.214Z,84.65
2023-11-30T08:35:36.152Z,79.44
2023-11-30T08:37:58.055Z,75.47
2023-11-30T08:40:22.637Z,76.02
2023-11-30T08:42:44.597Z,77.23
2023-11-30T08:45:07.414Z,77.71
2023-11-30T08:47:29.356Z,78.46
2023-11-30T08:49:51.243Z,79.26
2023-11-30T08:52:13.076Z,79.61
2023-11-30T08:54:35.040Z,78.71
2023-11-30T08:56:57.848Z,77.57
2023-11-30T08:59:20.442Z,78.50
2023-11-30T09:01:45.384Z,78.39
2023-11-30T09:04:09.760Z,78.81
2023-11-30T09:06:34.322Z,78.24
2023-11-30T09:08:56.571Z,78.57
2023-11-30T09:11:18.481Z,78.13
2023-11-30T09:13:40.321Z,79.19
2023-11-30T09:16:02.591Z,79.69
2023-11-30T09:18:24.439Z,79.23
2023-11-30T09:20:46.291Z,79.80
2023-11-30T09:23:08.173Z,79.95
2023-11-30T09:25:30.304Z,79.51
2023-11-30T09:27:52.186Z,79.82
2023-11-30T09:30:15.457Z,79.05
2023-11-30T09:32:38.405Z,79.02
2023-11-30T09:35:00.319Z,78.05
2023-11-30T09:37:22.778Z,77.88
2023-11-30T09:39:45.696Z,77.62
2023-11-30T09:42:07.955Z,78.13
2023-11-30T09:44:29.890Z,77.92
2023-11-30T09:46:52.032Z,77.84
2023-11-30T09:49:13.984Z,77.45
2023-11-30T09:51:36.548Z,78.56
2023-11-30T09:53:58.962Z,77.24
2023-11-30T09:56:20.955Z,76.55
2023-11-30T09:58:43.482Z,75.05
2023-11-30T10:01:08.794Z,75.17
2023-11-30T10:03:35.190Z,73.58
2023-11-30T10:05:57.099Z,73.44
2023-11-30T10:08:19.324Z,73.55
2023-11-30T10:10:41.273Z,73.45
2023-11-30T10:13:03.879Z,73.16
2023-11-30T10:15:26.699Z,73.28
2023-11-30T10:17:49.956Z,72.16
2023-11-30T10:20:12.758Z,71.71
2023-11-30T10:22:34.725Z,71.38
2023-11-30T10:24:56.670Z,72.05
2023-11-30T10:27:25.275Z,71.21
2023-11-30T10:29:50.447Z,71.29
2023-11-30T10:32:14.690Z,70.91
2023-11-30T10:34:50.884Z,70.81
2023-11-30T10:37:19.205Z,71.69
2023-11-30T10:39:44.319Z,72.55
2023-11-30T10:42:13.933Z,72.91
2023-11-30T10:44:39.145Z,72.54
2023-11-30T10:47:02.111Z,73.13
2023-11-30T10:49:26.341Z,74.04
2023-11-30T10:51:53.355Z,74.26
2023-11-30T10:54:58.843Z,75.36
2023-11-30T10:57:22.202Z,75.84
2023-11-30T10:59:49.064Z,75.60
2023-11-30T11:02:13.718Z,76.16
2023-11-30T11:04:42.069Z,76.74
2023-11-30T11:07:13.434Z,75.58
2023-11-30T11:09:43.225Z,76.79
2023-11-30T11:12:05.363Z,76.61
2023-11-30T11:14:33.810Z,76.60
2023-11-30T11:17:08.184Z,76.24
2023-11-30T11:19:33.536Z,76.08
2023-11-30T11:21:55.612Z,75.58
2023-11-30T11:24:23.764Z,75.50
2023-11-30T11:26:56.708Z,75.50
2023-11-30T11:29:24.351Z,75.24
2023-11-30T11:31:52.743Z,75.02
2023-11-30T11:34:15.312Z,74.55
2023-11-30T11:36:38.502Z,75.59
2023-11-30T11:39:00.394Z,75.25
2023-11-30T11:41:22.370Z,76.38
2023-11-30T11:43:44.205Z,76.30
2023-11-30T11:46:06.605Z,77.28
2023-11-30T11:48:28.513Z,77.42
2023-11-30T11:51:00.429Z,77.69
2023-11-30T11:53:23.350Z,77.67
2023-11-30T11:55:45.296Z,79.13
2023-11-30T11:58:07.345Z,78.21
2023-11-30T12:00:29.337Z,78.77
2023-11-30T12:02:52.494Z,77.97
2023-11-30T12:05:26.531Z,78.85
2023-11-30T12:07:57.737Z,78.83
2023-11-30T12:10:40.201Z,78.38
2023-11-30T12:13:03.939Z,79.61
2023-11-30T12:15:26.020Z,79.58
2023-11-30T12:17:47.956Z,79.43
2023-11-30T12:20:10.316Z,78.87
2023-11-30T12:22:32.196Z,77.81
2023-11-30T12:24:54.511Z,77.80
2023-11-30T12:27:16.447Z,77.12
2023-11-30T12:29:38.499Z,77.05
2023-11-30T12:32:00.524Z,77.78
2023-11-30T12:34:22.569Z,77.31
2023-11-30T12:36:44.537Z,77.19
2023-11-30T12:39:07.096Z,76.80
2023-11-30T12:41:28.954Z,76.79
2023-11-30T12:43:50.831Z,77.95
2023-11-30T12:46:12.861Z,77.92
2023-11-30T12:48:34.964Z,79.39
2023-11-30T12:50:56.917Z,78.79
2023-11-30T12:53:19.067Z,78.51
2023-11-30T12:55:41.241Z,77.88
2023-11-30T12:58:03.119Z,77.78
2023-11-30T13:00:24.991Z,78.53
2023-11-30T13:02:48.976Z,78.93
2023-11-30T13:05:12.905Z,78.25
2023-11-30T13:07:34.799Z,77.86
2023-11-30T13:09:57.008Z,77.89
2023-11-30T13:12:18.941Z,77.40
2023-11-30T13:14:40.835Z,77.79
2023-11-30T13:17:02.718Z,77.95
2023-11-30T13:19:25.425Z,76.99
2023-11-30T13:21:47.735Z,78.77
2023-11-30T13:24:09.707Z,78.01
2023-11-30T13:26:33.588Z,78.86
2023-11-30T13:28:55.470Z,78.65
2023-11-30T13:31:17.669Z,78.93
2023-11-30T13:33:39.619Z,80.09
2023-11-30T13:36:01.699Z,79.93
2023-11-30T13:38:23.674Z,79.97
2023-11-30T13:40:46.669Z,80.32
2023-11-30T13:43:08.676Z,80.73
2023-11-30T13:45:31.323Z,81.19
2023-11-30T13:47:53.204Z,81.49
2023-11-30T13:50:26.207Z,80.99
2023-11-30T13:52:53.035Z,81.20
2023-11-30T13:55:15.582Z,81.72
2023-11-30T13:57:37.441Z,82.04
2023-11-30T13:59:59.337Z,82.18
2023-11-30T14:02:21.247Z,82.70
2023-11-30T14:04:43.141Z,82.36
2023-11-30T14:07:05.184Z,82.32
2023-11-30T14:09:27.792Z,82.99
2023-11-30T14:11:49.769Z,82.67
2023-11-30T14:14:12.240Z,82.99
2023-11-30T14:16:34.294Z,82.18
2023-11-30T14:18:56.211Z,82.97
2023-11-30T14:21:19.475Z,82.78
2023-11-30T14:23:41.366Z,81.90
2023-11-30T14:26:03.293Z,82.14
2023-11-30T14:28:27.234Z,81.78
2023-11-30T14:30:49.383Z,82.05
2023-11-30T14:33:14.159Z,82.04
2023-11-30T14:35:36.314Z,81.36
2023-11-30T14:37:58.282Z,81.71
2023-11-30T14:40:21.115Z,81.91
2023-11-30T14:42:43.256Z,82.04
2023-11-30T14:45:07.343Z,82.10
2023-11-30T14:47:34.467Z,83.21
2023-11-30T14:49:56.376Z,82.68
2023-11-30T14:52:18.252Z,83.21
2023-11-30T14:54:40.517Z,84.08
2023-11-30T14:57:04.722Z,83.88
2023-11-30T14:59:28.086Z,83.84
2023-11-30T15:01:50.144Z,84.12
2023-11-30T15:04:12.249Z,84.18
2023-11-30T15:06:34.251Z,83.85
2023-11-30T15:08:56.174Z,83.70
2023-11-30T15:11:18.169Z,84.17
2023-11-30T15:13:40.039Z,84.00
2023-11-30T15:16:02.053Z,84.61
2023-11-30T15:18:24.634Z,85.94
2023-11-30T15:20:46.853Z,86.35
2023-11-30T15:23:08.762Z,87.40
2023-11-30T15:25:30.664Z,87.88
2023-11-30T15:27:52.775Z,89.18
2023-11-30T15:30:16.388Z,89.98
2023-11-30T15:32:39.254Z,90.46
2023-11-30T15:35:01.239Z,90.87
2023-11-30T15:37:23.238Z,91.16
2023-11-30T15:39:45.134Z,91.90
2023-11-30T15:42:07.056Z,91.85
2023-11-30T15:44:28.903Z,91.70
2023-11-30T15:46:50.764Z,91.55
2023-11-30T15:49:13.306Z,92.05
2023-11-30T15:51:40.797Z,92.15
2023-11-30T15:54:02.669Z,91.95
2023-11-30T15:56:24.720Z,92.14
2023-11-30T15:58:47.883Z,92.68
2023-11-30T16:01:11.899Z,92.95
2023-11-30T16:03:33.846Z,92.71
2023-11-30T16:05:55.766Z,93.16
2023-11-30T16:08:18.369Z,92.91
2023-11-30T16:10:40.238Z,92.94
2023-11-30T16:13:02.705Z,92.89
2023-11-30T16:15:25.799Z,91.90
2023-11-30T16:17:50.246Z,91.67
2023-11-30T16:20:12.974Z,92.11
2023-11-30T16:22:34.998Z,92.02
2023-11-30T16:24:57.102Z,92.00
2023-11-30T16:27:21.235Z,92.24
2023-11-30T16:29:43.227Z,91.65
2023-11-30T16:32:05.729Z,91.82
2023-11-30T16:34:32.001Z,92.01
2023-11-30T16:36:53.909Z,91.95
2023-11-30T16:39:16.432Z,92.03
2023-11-30T16:41:38.274Z,92.32
2023-11-30T16:44:00.312Z,91.76
2023-11-30T16:46:22.358Z,91.90
2023-11-30T16:48:45.454Z,91.57
2023-11-30T16:51:07.927Z,91.62
2023-11-30T16:53:29.845Z,91.71
2023-11-30T16:55:52.247Z,91.21
2023-11-30T16:58:14.121Z,90.76
2023-11-30T17:00:36.122Z,90.44
2023-11-30T17:02:58.413Z,90.50
2023-11-30T17:05:21.698Z,90.30
2023-11-30T17:07:46.562Z,89.91
2023-11-30T17:10:09.611Z,89.86
2023-11-30T17:12:31.536Z,89.36
2023-11-30T17:14:53.400Z,89.59
2023-11-30T17:17:15.373Z,89.68
2023-11-30T17:19:37.314Z,89.99
2023-11-30T17:21:59.413Z,90.92
2023-11-30T17:24:22.090Z,90.48
2023-11-30T17:26:44.746Z,90.57
2023-11-30T17:29:06.616Z,90.06
2023-11-30T17:31:29.002Z,90.19
2023-11-30T17:33:52.633Z,90.22
2023-11-30T17:36:15.080Z,90.73
2023-11-30T17:38:37.556Z,90.17
2023-11-30T17:40:59.576Z,89.65
2023-11-30T17:43:21.460Z,89.52
2023-11-30T17:45:43.457Z,89.40
2023-11-30T17:48:06.386Z,89.04
2023-11-30T17:50:28.438Z,89.13
2023-11-30T17:52:50.970Z,88.89
2023-11-30T17:55:13.823Z,88.58
2023-11-30T17:57:35.733Z,88.95
2023-11-30T17:59:57.791Z,89.16
2023-11-30T18:02:20.325Z,89.66
2023-11-30T18:04:42.383Z,89.77
2023-11-30T18:07:08.520Z,89.55
2023-11-30T18:09:30.453Z,89.93
2023-11-30T18:11:52.369Z,89.55
2023-11-30T18:14:16.092Z,89.35
2023-11-30T18:16:38.246Z,89.74
2023-11-30T18:19:00.320Z,89.52
2023-11-30T18:21:22.258Z,89.99
2023-11-30T18:23:44.172Z,90.37
2023-11-30T18:26:06.211Z,90.77
2023-11-30T18:28:28.065Z,90.74
2023-11-30T18:30:50.899Z,90.60
2023-11-30T18:33:12.878Z,91.04
2023-11-30T18:35:35.387Z,91.46
2023-11-30T18:38:01.304Z,91.21
2023-11-30T18:40:25.294Z,91.29
2023-11-30T18:42:47.829Z,91.32
2023-11-30T18:45:10.735Z,91.00
2023-11-30T18:47:32.656Z,91.27
2023-11-30T18:49:54.831Z,90.93
2023-11-30T18:52:17.830Z,91.04
2023-11-30T18:54:39.997Z,90.59
2023-11-30T18:57:01.987Z,91.44
2023-11-30T18:59:23.907Z,91.34
2023-11-30T19:01:45.911Z,91.45
2023-11-30T19:04:07.894Z,91.42
2023-11-30T19:06:29.855Z,91.68
2023-11-30T19:11:22.519Z,91.99
2023-11-30T19:13:44.639Z,91.79
2023-11-30T19:16:07.726Z,91.68
2023-11-30T19:18:30.643Z,91.80
2023-11-30T19:20:52.618Z,91.86
2023-11-30T19:23:15.272Z,91.63
2023-11-30T19:25:41.973Z,91.82
2023-11-30T19:28:04.160Z,91.40
2023-11-30T19:30:26.220Z,91.69
2023-11-30T19:32:48.213Z,92.00
2023-11-30T19:35:10.287Z,91.69
2023-11-30T19:37:32.199Z,91.24
2023-11-30T19:39:54.142Z,91.97
2023-11-30T19:42:16.073Z,91.74
2023-11-30T19:44:37.988Z,92.38
2023-11-30T19:46:59.939Z,92.40
2023-11-30T19:49:21.794Z,91.98
2023-11-30T19:51:43.715Z,92.30
2023-11-30T19:54:06.034Z,91.76
2023-11-30T19:56:29.696Z,92.30
2023-11-30T19:58:51.659Z,92.31
2023-11-30T20:01:13.933Z,92.71
2023-11-30T20:03:36.035Z,92.44
2023-11-30T20:05:58.039Z,92.45
2023-11-30T20:08:20.010Z,92.38
2023-11-30T20:10:41.884Z,91.53
2023-11-30T20:13:04.096Z,91.32
2023-11-30T20:15:26.042Z,91.41
2023-11-30T20:17:49.379Z,91.63
2023-11-30T20:20:11.670Z,91.30
2023-11-30T20:22:33.680Z,91.04
2023-11-30T20:24:55.899Z,91.22
2023-11-30T20:27:17.828Z,91.38
2023-11-30T20:29:39.707Z,91.11
2023-11-30T20:32:02.018Z,91.97
2023-11-30T20:34:23.901Z,91.95
2023-11-30T20:36:45.818Z,92.14
2023-11-30T20:39:07.716Z,92.51
2023-11-30T20:41:29.599Z,92.57
2023-11-30T20:43:51.930Z,93.12
2023-11-30T20:46:14.369Z,92.68
2023-11-30T20:48:36.527Z,92.93
2023-11-30T20:50:58.400Z,93.56
2023-11-30T20:53:20.341Z,93.01
2023-11-30T20:55:44.617Z,93.10
2023-11-30T20:58:06.608Z,93.32
2023-11-30T21:00:28.604Z,93.41
2023-11-30T21:02:50.633Z,93.37
2023-11-30T21:05:12.705Z,93.55
2023-11-30T21:07:34.578Z,93.89
2023-11-30T21:09:57.279Z,94.80
2023-11-30T21:12:19.160Z,94.13
2023-11-30T21:14:40.999Z,93.45
2023-11-30T21:17:02.976Z,92.94
2023-11-30T21:19:25.895Z,93.31
2023-11-30T21:21:48.476Z,92.80
2023-11-30T21:24:10.590Z,93.50
2023-11-30T21:26:32.592Z,93.03
2023-11-30T21:28:54.501Z,93.75
2023-11-30T21:31:16.544Z,93.51
2023-11-30T21:33:38.959Z,93.82
2023-11-30T21:36:00.856Z,93.28
2023-11-30T21:38:23.106Z,93.93
2023-11-30T21:40:44.948Z,93.47
2023-11-30T21:43:06.832Z,93.61
2023-11-30T21:45:28.847Z,94.10
2023-11-30T21:47:50.765Z,94.77
2023-11-30T21:50:18.986Z,95.20
2023-11-30T21:52:41.141Z,95.06
2023-11-30T21:55:03.078Z,95.32
2023-11-30T21:57:25.039Z,95.39
2023-11-30T21:59:46.945Z,94.46
2023-11-30T22:02:09.045Z,95.15
2023-11-30T22:04:31.878Z,94.66
2023-11-30T22:06:54.179Z,95.02
2023-11-30T22:09:16.055Z,95.10
2023-11-30T22:11:37.945Z,95.30
2023-11-30T22:13:59.837Z,95.93
2023-11-30T22:16:26.537Z,96.32
2023-11-30T22:18:54.999Z,96.10
2023-11-30T22:21:16.904Z,96.38
2023-11-30T22:23:38.866Z,96.13
2023-11-30T22:26:04.276Z,96.39
2023-11-30T22:28:26.681Z,96.60
2023-11-30T22:30:48.609Z,96.84
2023-11-30T22:33:10.528Z,96.78
2023-11-30T22:35:32.374Z,96.96
2023-11-30T22:37:54.451Z,96.63
2023-11-30T22:40:16.558Z,97.01
2023-11-30T22:42:38.655Z,97.10
2023-11-30T22:45:01.993Z,97.43
2023-11-30T22:47:24.050Z,97.13
2023-11-30T22:49:46.355Z,97.35
2023-11-30T22:52:08.351Z,97.21
2023-11-30T22:54:30.452Z,97.77
2023-11-30T22:56:52.492Z,97.94
2023-11-30T22:59:16.384Z,97.11
2023-11-30T23:01:38.639Z,97.46
2023-11-30T23:04:02.326Z,97.46
2023-11-30T23:06:24.421Z,97.78
2023-11-30T23:08:47.245Z,98.06
2023-11-30T23:11:10.510Z,98.20
2023-11-30T23:13:32.352Z,97.77
2023-11-30T23:15:54.426Z,97.99
2023-11-30T23:18:17.624Z,98.13
2023-11-30T23:20:39.641Z,97.48
2023-11-30T23:23:01.527Z,97.80
2023-11-30T23:25:23.904Z,97.60
2023-11-30T23:27:45.804Z,96.76
2023-11-30T23:30:08.408Z,96.68
2023-11-30T23:32:30.323Z,96.43
2023-11-30T23:34:52.294Z,96.22
2023-11-30T23:37:14.172Z,96.53
2023-11-30T23:39:36.053Z,96.45
2023-11-30T23:41:57.998Z,96.21
2023-11-30T23:44:19.886Z,95.74
2023-11-30T23:46:41.783Z,95.78
2023-11-30T23:49:03.728Z,95.71
2023-11-30T23:51:25.723Z,96.42
2023-11-30T23:53:47.687Z,96.43
2023-11-30T23:56:10.224Z,95.98
2023-11-30T23:58:32.084Z,96.28
